sensor_id;sensor_type;location;lat;lon;timestamp;temperature;humidity
67549;DHT22;54382;53.524;49.326;2022-09-09T00:00:53;15.30;61.10
67549;DHT22;54382;53.524;49.326;2022-09-09T00:03:27;15.30;61.10
67549;DHT22;54382;53.524;49.326;2022-09-09T00:06:06;15.40;61.10
67549;DHT22;54382;53.524;49.326;2022-09-09T00:11:46;15.40;61.20
67549;DHT22;54382;53.524;49.326;2022-09-09T00:17:14;15.60;60.90
67549;DHT22;54382;53.524;49.326;2022-09-09T00:20:02;15.70;60.50
67549;DHT22;54382;53.524;49.326;2022-09-09T00:22:48;15.70;60.30
67549;DHT22;54382;53.524;49.326;2022-09-09T00:25:40;15.70;60.10
67549;DHT22;54382;53.524;49.326;2022-09-09T00:28:27;15.80;60.00
67549;DHT22;54382;53.524;49.326;2022-09-09T00:31:28;15.90;59.80
67549;DHT22;54382;53.524;49.326;2022-09-09T00:34:05;15.80;59.90
67549;DHT22;54382;53.524;49.326;2022-09-09T00:36:39;15.90;59.60
67549;DHT22;54382;53.524;49.326;2022-09-09T00:42:06;16.00;59.50
67549;DHT22;54382;53.524;49.326;2022-09-09T00:48:11;16.00;59.30
67549;DHT22;54382;53.524;49.326;2022-09-09T00:51:02;16.00;58.80
67549;DHT22;54382;53.524;49.326;2022-09-09T00:54:06;16.00;59.00
67549;DHT22;54382;53.524;49.326;2022-09-09T00:56:43;16.10;58.70
67549;DHT22;54382;53.524;49.326;2022-09-09T01:02:35;16.10;58.60
67549;DHT22;54382;53.524;49.326;2022-09-09T01:05:55;16.20;58.50
67549;DHT22;54382;53.524;49.326;2022-09-09T01:08:39;16.10;58.50
67549;DHT22;54382;53.524;49.326;2022-09-09T01:11:17;16.20;58.40
67549;DHT22;54382;53.524;49.326;2022-09-09T01:13:52;16.20;58.20
67549;DHT22;54382;53.524;49.326;2022-09-09T01:16:25;16.20;58.00
67549;DHT22;54382;53.524;49.326;2022-09-09T01:18:54;16.20;58.10
67549;DHT22;54382;53.524;49.326;2022-09-09T01:22:01;16.10;58.00
67549;DHT22;54382;53.524;49.326;2022-09-09T01:27:48;16.10;57.90
67549;DHT22;54382;53.524;49.326;2022-09-09T01:30:17;16.10;57.90
67549;DHT22;54382;53.524;49.326;2022-09-09T01:32:48;16.10;58.10
67549;DHT22;54382;53.524;49.326;2022-09-09T01:38:13;16.00;58.30
67549;DHT22;54382;53.524;49.326;2022-09-09T01:40:41;16.10;58.00
67549;DHT22;54382;53.524;49.326;2022-09-09T01:43:07;16.10;58.10
67549;DHT22;54382;53.524;49.326;2022-09-09T01:45:34;16.00;57.90
67549;DHT22;54382;53.524;49.326;2022-09-09T01:48:01;16.00;57.90
67549;DHT22;54382;53.524;49.326;2022-09-09T01:50:28;16.00;58.00
67549;DHT22;54382;53.524;49.326;2022-09-09T01:52:59;16.00;58.00
67549;DHT22;54382;53.524;49.326;2022-09-09T01:55:42;16.00;58.00
67549;DHT22;54382;53.524;49.326;2022-09-09T01:58:31;16.00;58.10
67549;DHT22;54382;53.524;49.326;2022-09-09T02:04:43;16.00;57.90
67549;DHT22;54382;53.524;49.326;2022-09-09T02:10:11;16.00;58.00
67549;DHT22;54382;53.524;49.326;2022-09-09T02:12:47;16.00;57.80
67549;DHT22;54382;53.524;49.326;2022-09-09T02:15:32;16.20;57.40
67549;DHT22;54382;53.524;49.326;2022-09-09T02:18:29;16.10;57.70
67549;DHT22;54382;53.524;49.326;2022-09-09T02:20:59;16.10;57.50
67549;DHT22;54382;53.524;49.326;2022-09-09T02:23:27;16.00;57.50
67549;DHT22;54382;53.524;49.326;2022-09-09T02:25:56;16.00;57.90
67549;DHT22;54382;53.524;49.326;2022-09-09T02:28:26;16.00;58.10
67549;DHT22;54382;53.524;49.326;2022-09-09T02:30:55;16.00;58.10
67549;DHT22;54382;53.524;49.326;2022-09-09T02:33:28;16.00;57.90
67549;DHT22;54382;53.524;49.326;2022-09-09T02:36:09;16.00;57.90
67549;DHT22;54382;53.524;49.326;2022-09-09T02:38:41;16.00;57.80
67549;DHT22;54382;53.524;49.326;2022-09-09T02:41:22;16.00;57.70
67549;DHT22;54382;53.524;49.326;2022-09-09T02:43:52;16.00;57.60
67549;DHT22;54382;53.524;49.326;2022-09-09T02:47:16;16.00;57.50
67549;DHT22;54382;53.524;49.326;2022-09-09T02:52:59;16.00;57.50
67549;DHT22;54382;53.524;49.326;2022-09-09T02:55:46;16.00;57.70
67549;DHT22;54382;53.524;49.326;2022-09-09T02:58:17;16.00;57.50
67549;DHT22;54382;53.524;49.326;2022-09-09T03:00:47;16.00;57.70
67549;DHT22;54382;53.524;49.326;2022-09-09T03:03:15;16.00;57.70
67549;DHT22;54382;53.524;49.326;2022-09-09T03:05:44;16.00;57.60
67549;DHT22;54382;53.524;49.326;2022-09-09T03:08:12;16.10;57.60
67549;DHT22;54382;53.524;49.326;2022-09-09T03:10:39;16.10;57.50
67549;DHT22;54382;53.524;49.326;2022-09-09T03:13:06;16.10;57.30
67549;DHT22;54382;53.524;49.326;2022-09-09T03:15:34;16.10;57.30
67549;DHT22;54382;53.524;49.326;2022-09-09T03:18:01;16.10;57.30
67549;DHT22;54382;53.524;49.326;2022-09-09T03:20:29;16.10;57.30
67549;DHT22;54382;53.524;49.326;2022-09-09T03:22:57;16.20;57.50
67549;DHT22;54382;53.524;49.326;2022-09-09T03:25:24;16.20;57.40
67549;DHT22;54382;53.524;49.326;2022-09-09T03:27:52;16.20;57.30
67549;DHT22;54382;53.524;49.326;2022-09-09T03:30:25;16.20;57.40
67549;DHT22;54382;53.524;49.326;2022-09-09T03:32:53;16.30;57.20
67549;DHT22;54382;53.524;49.326;2022-09-09T03:35:21;16.30;57.30
67549;DHT22;54382;53.524;49.326;2022-09-09T03:37:47;16.30;57.10
67549;DHT22;54382;53.524;49.326;2022-09-09T03:40:14;16.40;57.20
67549;DHT22;54382;53.524;49.326;2022-09-09T03:42:41;16.40;57.10
67549;DHT22;54382;53.524;49.326;2022-09-09T03:45:09;16.50;57.10
67549;DHT22;54382;53.524;49.326;2022-09-09T03:47:36;16.50;57.10
67549;DHT22;54382;53.524;49.326;2022-09-09T03:50:04;16.50;57.10
67549;DHT22;54382;53.524;49.326;2022-09-09T03:52:38;16.60;57.30
67549;DHT22;54382;53.524;49.326;2022-09-09T03:55:05;16.70;57.10
67549;DHT22;54382;53.524;49.326;2022-09-09T03:57:34;16.70;56.80
67549;DHT22;54382;53.524;49.326;2022-09-09T04:00:06;16.80;56.70
67549;DHT22;54382;53.524;49.326;2022-09-09T04:02:33;16.80;56.50
67549;DHT22;54382;53.524;49.326;2022-09-09T04:05:00;16.90;56.20
67549;DHT22;54382;53.524;49.326;2022-09-09T04:07:27;16.90;56.10
67549;DHT22;54382;53.524;49.326;2022-09-09T04:09:54;16.90;56.30
67549;DHT22;54382;53.524;49.326;2022-09-09T04:12:21;16.90;56.20
67549;DHT22;54382;53.524;49.326;2022-09-09T04:14:48;16.90;56.20
67549;DHT22;54382;53.524;49.326;2022-09-09T04:17:14;16.90;56.00
67549;DHT22;54382;53.524;49.326;2022-09-09T04:19:41;17.00;56.20
67549;DHT22;54382;53.524;49.326;2022-09-09T04:22:08;17.10;56.40
67549;DHT22;54382;53.524;49.326;2022-09-09T04:24:35;17.20;56.20
67549;DHT22;54382;53.524;49.326;2022-09-09T04:27:01;17.30;56.20
67549;DHT22;54382;53.524;49.326;2022-09-09T04:29:28;17.50;55.90
67549;DHT22;54382;53.524;49.326;2022-09-09T04:31:55;17.60;55.40
67549;DHT22;54382;53.524;49.326;2022-09-09T04:34:21;17.80;54.90
67549;DHT22;54382;53.524;49.326;2022-09-09T04:36:48;18.00;53.90
67549;DHT22;54382;53.524;49.326;2022-09-09T04:39:14;18.10;53.80
67549;DHT22;54382;53.524;49.326;2022-09-09T04:41:41;18.20;53.20
67549;DHT22;54382;53.524;49.326;2022-09-09T04:44:08;18.40;52.70
67549;DHT22;54382;53.524;49.326;2022-09-09T04:46:35;18.60;52.70
67549;DHT22;54382;53.524;49.326;2022-09-09T04:49:02;18.80;51.90
67549;DHT22;54382;53.524;49.326;2022-09-09T04:51:29;18.90;51.70
67549;DHT22;54382;53.524;49.326;2022-09-09T04:53:57;19.10;51.20
67549;DHT22;54382;53.524;49.326;2022-09-09T04:56:23;19.30;50.70
67549;DHT22;54382;53.524;49.326;2022-09-09T04:58:52;19.40;50.00
67549;DHT22;54382;53.524;49.326;2022-09-09T05:01:21;19.60;49.70
67549;DHT22;54382;53.524;49.326;2022-09-09T05:03:49;19.80;49.30
67549;DHT22;54382;53.524;49.326;2022-09-09T05:06:19;19.90;48.50
67549;DHT22;54382;53.524;49.326;2022-09-09T05:08:46;19.90;48.10
67549;DHT22;54382;53.524;49.326;2022-09-09T05:11:21;19.90;47.60
67549;DHT22;54382;53.524;49.326;2022-09-09T05:13:50;19.90;47.10
67549;DHT22;54382;53.524;49.326;2022-09-09T05:16:18;19.90;47.30
67549;DHT22;54382;53.524;49.326;2022-09-09T05:18:46;20.00;47.10
67549;DHT22;54382;53.524;49.326;2022-09-09T05:21:14;20.00;47.10
67549;DHT22;54382;53.524;49.326;2022-09-09T05:23:41;20.00;47.00
67549;DHT22;54382;53.524;49.326;2022-09-09T05:26:15;20.10;46.50
67549;DHT22;54382;53.524;49.326;2022-09-09T05:28:43;20.10;46.50
67549;DHT22;54382;53.524;49.326;2022-09-09T05:31:11;20.10;46.50
67549;DHT22;54382;53.524;49.326;2022-09-09T05:33:40;20.20;46.30
67549;DHT22;54382;53.524;49.326;2022-09-09T05:36:11;20.10;46.00
67549;DHT22;54382;53.524;49.326;2022-09-09T05:38:42;20.10;46.10
67549;DHT22;54382;53.524;49.326;2022-09-09T05:41:09;20.10;46.30
67549;DHT22;54382;53.524;49.326;2022-09-09T05:43:42;20.10;46.20
67549;DHT22;54382;53.524;49.326;2022-09-09T05:46:12;20.10;46.00
67549;DHT22;54382;53.524;49.326;2022-09-09T05:48:43;20.10;46.00
67549;DHT22;54382;53.524;49.326;2022-09-09T05:51:14;20.10;46.40
67549;DHT22;54382;53.524;49.326;2022-09-09T05:53:44;20.20;46.20
67549;DHT22;54382;53.524;49.326;2022-09-09T05:56:15;20.30;46.10
67549;DHT22;54382;53.524;49.326;2022-09-09T05:58:44;20.30;45.50
67549;DHT22;54382;53.524;49.326;2022-09-09T06:01:16;20.40;45.50
67549;DHT22;54382;53.524;49.326;2022-09-09T06:03:48;20.40;45.50
67549;DHT22;54382;53.524;49.326;2022-09-09T06:06:27;20.50;45.10
67549;DHT22;54382;53.524;49.326;2022-09-09T06:08:57;20.50;45.10
67549;DHT22;54382;53.524;49.326;2022-09-09T06:11:29;20.50;44.70
67549;DHT22;54382;53.524;49.326;2022-09-09T06:14:01;20.50;44.70
67549;DHT22;54382;53.524;49.326;2022-09-09T06:16:29;20.50;44.60
67549;DHT22;54382;53.524;49.326;2022-09-09T06:18:58;20.40;44.60
67549;DHT22;54382;53.524;49.326;2022-09-09T06:21:27;20.40;44.80
67549;DHT22;54382;53.524;49.326;2022-09-09T06:23:58;20.40;44.70
67549;DHT22;54382;53.524;49.326;2022-09-09T06:26:27;20.40;44.20
67549;DHT22;54382;53.524;49.326;2022-09-09T06:28:57;20.40;43.40
67549;DHT22;54382;53.524;49.326;2022-09-09T06:31:26;20.30;43.20
67549;DHT22;54382;53.524;49.326;2022-09-09T06:33:57;20.20;42.30
67549;DHT22;54382;53.524;49.326;2022-09-09T06:36:26;20.10;42.20
67549;DHT22;54382;53.524;49.326;2022-09-09T06:38:54;19.90;41.10
67549;DHT22;54382;53.524;49.326;2022-09-09T06:41:23;19.90;41.60
67549;DHT22;54382;53.524;49.326;2022-09-09T06:43:52;19.80;42.20
67549;DHT22;54382;53.524;49.326;2022-09-09T06:46:23;19.70;42.20
67549;DHT22;54382;53.524;49.326;2022-09-09T06:48:54;19.70;42.00
67549;DHT22;54382;53.524;49.326;2022-09-09T06:51:24;19.70;42.30
67549;DHT22;54382;53.524;49.326;2022-09-09T06:53:53;19.60;42.50
67549;DHT22;54382;53.524;49.326;2022-09-09T06:58:50;19.60;42.90
67549;DHT22;54382;53.524;49.326;2022-09-09T07:01:28;19.60;43.30
67549;DHT22;54382;53.524;49.326;2022-09-09T07:03:59;19.60;43.40
67549;DHT22;54382;53.524;49.326;2022-09-09T07:06:28;19.60;43.80
67549;DHT22;54382;53.524;49.326;2022-09-09T07:08:58;19.60;43.90
67549;DHT22;54382;53.524;49.326;2022-09-09T07:11:28;19.60;43.70
67549;DHT22;54382;53.524;49.326;2022-09-09T07:14:00;19.70;43.70
67549;DHT22;54382;53.524;49.326;2022-09-09T07:16:27;19.80;44.20
67549;DHT22;54382;53.524;49.326;2022-09-09T07:18:57;19.90;44.00
67549;DHT22;54382;53.524;49.326;2022-09-09T07:21:27;20.00;43.90
67549;DHT22;54382;53.524;49.326;2022-09-09T07:23:55;20.10;43.60
67549;DHT22;54382;53.524;49.326;2022-09-09T07:26:26;20.30;43.80
67549;DHT22;54382;53.524;49.326;2022-09-09T07:28:54;20.40;43.70
67549;DHT22;54382;53.524;49.326;2022-09-09T07:31:27;20.60;43.30
67549;DHT22;54382;53.524;49.326;2022-09-09T07:33:57;20.80;42.90
67549;DHT22;54382;53.524;49.326;2022-09-09T07:36:27;21.00;42.50
67549;DHT22;54382;53.524;49.326;2022-09-09T07:39:00;21.20;43.00
67549;DHT22;54382;53.524;49.326;2022-09-09T07:41:33;21.40;41.90
67549;DHT22;54382;53.524;49.326;2022-09-09T07:44:15;21.60;41.00
67549;DHT22;54382;53.524;49.326;2022-09-09T07:46:43;21.80;40.10
67549;DHT22;54382;53.524;49.326;2022-09-09T07:49:11;21.90;39.00
67549;DHT22;54382;53.524;49.326;2022-09-09T07:51:40;22.00;39.30
67549;DHT22;54382;53.524;49.326;2022-09-09T07:54:10;22.10;38.60
67549;DHT22;54382;53.524;49.326;2022-09-09T07:56:39;22.20;38.20
67549;DHT22;54382;53.524;49.326;2022-09-09T07:59:07;22.30;38.70
67549;DHT22;54382;53.524;49.326;2022-09-09T08:01:37;22.30;39.00
67549;DHT22;54382;53.524;49.326;2022-09-09T08:04:07;22.40;39.00
67549;DHT22;54382;53.524;49.326;2022-09-09T08:06:44;22.40;38.60
67549;DHT22;54382;53.524;49.326;2022-09-09T08:09:21;22.40;38.70
67549;DHT22;54382;53.524;49.326;2022-09-09T08:11:50;22.20;38.20
67549;DHT22;54382;53.524;49.326;2022-09-09T08:14:17;22.00;38.50
67549;DHT22;54382;53.524;49.326;2022-09-09T08:16:46;21.80;39.00
67549;DHT22;54382;53.524;49.326;2022-09-09T08:19:14;21.60;40.00
67549;DHT22;54382;53.524;49.326;2022-09-09T08:21:43;21.40;40.30
67549;DHT22;54382;53.524;49.326;2022-09-09T08:24:11;21.30;42.10
67549;DHT22;54382;53.524;49.326;2022-09-09T08:26:41;21.20;42.00
67549;DHT22;54382;53.524;49.326;2022-09-09T08:29:12;21.10;42.40
67549;DHT22;54382;53.524;49.326;2022-09-09T08:31:47;21.10;42.50
67549;DHT22;54382;53.524;49.326;2022-09-09T08:34:15;21.00;43.20
67549;DHT22;54382;53.524;49.326;2022-09-09T08:36:45;20.90;43.60
67549;DHT22;54382;53.524;49.326;2022-09-09T08:39:16;20.90;43.30
67549;DHT22;54382;53.524;49.326;2022-09-09T08:45:00;21.00;43.00
67549;DHT22;54382;53.524;49.326;2022-09-09T08:50:28;21.20;42.10
67549;DHT22;54382;53.524;49.326;2022-09-09T08:53:16;21.40;41.80
67549;DHT22;54382;53.524;49.326;2022-09-09T08:55:49;21.70;39.90
67549;DHT22;54382;53.524;49.326;2022-09-09T08:58:19;22.00;40.00
67549;DHT22;54382;53.524;49.326;2022-09-09T09:00:54;22.40;39.20
67549;DHT22;54382;53.524;49.326;2022-09-09T09:06:55;22.90;35.80
67549;DHT22;54382;53.524;49.326;2022-09-09T09:12:40;22.90;34.20
67549;DHT22;54382;53.524;49.326;2022-09-09T09:15:19;22.80;34.70
67549;DHT22;54382;53.524;49.326;2022-09-09T09:17:48;22.90;35.50
67549;DHT22;54382;53.524;49.326;2022-09-09T09:20:17;22.90;35.60
67549;DHT22;54382;53.524;49.326;2022-09-09T09:22:52;22.90;35.80
67549;DHT22;54382;53.524;49.326;2022-09-09T09:25:32;22.80;35.60
67549;DHT22;54382;53.524;49.326;2022-09-09T09:28:02;22.80;36.60
67549;DHT22;54382;53.524;49.326;2022-09-09T09:30:44;22.70;38.00
67549;DHT22;54382;53.524;49.326;2022-09-09T09:33:27;22.60;37.90
67549;DHT22;54382;53.524;49.326;2022-09-09T09:35:58;22.60;37.60
67549;DHT22;54382;53.524;49.326;2022-09-09T09:38:27;22.40;37.60
67549;DHT22;54382;53.524;49.326;2022-09-09T09:40:57;22.30;37.50
67549;DHT22;54382;53.524;49.326;2022-09-09T09:43:35;22.20;38.50
67549;DHT22;54382;53.524;49.326;2022-09-09T09:46:04;22.00;38.00
67549;DHT22;54382;53.524;49.326;2022-09-09T09:48:32;22.00;38.60
67549;DHT22;54382;53.524;49.326;2022-09-09T09:51:10;22.10;38.50
67549;DHT22;54382;53.524;49.326;2022-09-09T09:53:42;22.20;38.10
67549;DHT22;54382;53.524;49.326;2022-09-09T09:56:11;22.30;36.20
67549;DHT22;54382;53.524;49.326;2022-09-09T10:01:22;22.20;35.30
67549;DHT22;54382;53.524;49.326;2022-09-09T10:04:18;22.20;35.70
67549;DHT22;54382;53.524;49.326;2022-09-09T10:06:49;22.20;36.00
67549;DHT22;54382;53.524;49.326;2022-09-09T10:09:28;22.30;36.20
67549;DHT22;54382;53.524;49.326;2022-09-09T10:14:52;22.20;37.90
67549;DHT22;54382;53.524;49.326;2022-09-09T10:34:33;22.60;38.30
67549;DHT22;54382;53.524;49.326;2022-09-09T10:43:19;22.70;37.20
67549;DHT22;54382;53.524;49.326;2022-09-09T10:48:45;22.50;38.20
67549;DHT22;54382;53.524;49.326;2022-09-09T10:56:55;22.30;39.50
67549;DHT22;54382;53.524;49.326;2022-09-09T10:59:36;22.20;39.70
67549;DHT22;54382;53.524;49.326;2022-09-09T11:02:15;22.20;39.80
67549;DHT22;54382;53.524;49.326;2022-09-09T11:05:16;22.20;39.40
67549;DHT22;54382;53.524;49.326;2022-09-09T11:10:44;22.20;38.60
67549;DHT22;54382;53.524;49.326;2022-09-09T11:16:05;22.10;38.10
67549;DHT22;54382;53.524;49.326;2022-09-09T11:19:21;22.30;37.00
67549;DHT22;54382;53.524;49.326;2022-09-09T11:21:49;22.60;37.10
67549;DHT22;54382;53.524;49.326;2022-09-09T11:24:24;22.80;36.40
67549;DHT22;54382;53.524;49.326;2022-09-09T11:30:12;22.90;36.70
67549;DHT22;54382;53.524;49.326;2022-09-09T11:36:30;23.00;36.60
67549;DHT22;54382;53.524;49.326;2022-09-09T11:39:51;22.90;36.70
67549;DHT22;54382;53.524;49.326;2022-09-09T11:42:38;22.90;36.90
67549;DHT22;54382;53.524;49.326;2022-09-09T11:45:31;22.80;37.20
67549;DHT22;54382;53.524;49.326;2022-09-09T11:48:01;22.80;37.60
67549;DHT22;54382;53.524;49.326;2022-09-09T11:50:34;22.80;37.30
67549;DHT22;54382;53.524;49.326;2022-09-09T11:53:22;22.80;37.60
67549;DHT22;54382;53.524;49.326;2022-09-09T11:56:05;22.70;37.80
67549;DHT22;54382;53.524;49.326;2022-09-09T11:58:42;22.70;37.80
67549;DHT22;54382;53.524;49.326;2022-09-09T12:01:43;22.70;37.50
67549;DHT22;54382;53.524;49.326;2022-09-09T12:09:44;22.20;42.60
67549;DHT22;54382;53.524;49.326;2022-09-09T12:12:31;21.80;44.30
67549;DHT22;54382;53.524;49.326;2022-09-09T12:17:41;21.00;45.60
67549;DHT22;54382;53.524;49.326;2022-09-09T12:20:42;20.50;47.70
67549;DHT22;54382;53.524;49.326;2022-09-09T12:26:16;19.80;48.70
67549;DHT22;54382;53.524;49.326;2022-09-09T12:31:53;19.40;49.60
67549;DHT22;54382;53.524;49.326;2022-09-09T12:34:52;19.30;49.40
67549;DHT22;54382;53.524;49.326;2022-09-09T12:40:22;18.90;50.50
67549;DHT22;54382;53.524;49.326;2022-09-09T12:42:50;18.70;50.20
67549;DHT22;54382;53.524;49.326;2022-09-09T12:45:22;18.60;50.60
67549;DHT22;54382;53.524;49.326;2022-09-09T12:48:09;18.50;50.70
67549;DHT22;54382;53.524;49.326;2022-09-09T12:50:50;18.40;50.70
67549;DHT22;54382;53.524;49.326;2022-09-09T12:53:34;18.40;50.60
67549;DHT22;54382;53.524;49.326;2022-09-09T12:56:07;18.30;50.80
67549;DHT22;54382;53.524;49.326;2022-09-09T12:58:37;18.10;51.00
67549;DHT22;54382;53.524;49.326;2022-09-09T13:01:05;18.10;51.60
67549;DHT22;54382;53.524;49.326;2022-09-09T13:03:42;18.20;51.70
67549;DHT22;54382;53.524;49.326;2022-09-09T13:06:19;18.10;51.80
67549;DHT22;54382;53.524;49.326;2022-09-09T13:08:50;18.10;52.40
67549;DHT22;54382;53.524;49.326;2022-09-09T13:11:21;18.10;52.30
67549;DHT22;54382;53.524;49.326;2022-09-09T13:13:54;18.10;52.20
67549;DHT22;54382;53.524;49.326;2022-09-09T13:16:26;18.20;52.50
67549;DHT22;54382;53.524;49.326;2022-09-09T13:19:01;18.20;52.30
67549;DHT22;54382;53.524;49.326;2022-09-09T13:21:34;18.20;52.00
67549;DHT22;54382;53.524;49.326;2022-09-09T13:24:05;18.30;52.30
67549;DHT22;54382;53.524;49.326;2022-09-09T13:26:34;18.30;52.20
67549;DHT22;54382;53.524;49.326;2022-09-09T13:29:17;18.30;52.30
67549;DHT22;54382;53.524;49.326;2022-09-09T13:31:45;18.30;52.20
67549;DHT22;54382;53.524;49.326;2022-09-09T13:34:14;18.40;51.40
67549;DHT22;54382;53.524;49.326;2022-09-09T13:37:00;18.40;51.30
67549;DHT22;54382;53.524;49.326;2022-09-09T13:39:34;18.40;51.00
67549;DHT22;54382;53.524;49.326;2022-09-09T13:42:03;18.30;51.00
67549;DHT22;54382;53.524;49.326;2022-09-09T13:44:40;18.30;51.10
67549;DHT22;54382;53.524;49.326;2022-09-09T13:47:21;18.30;51.20
67549;DHT22;54382;53.524;49.326;2022-09-09T13:49:52;18.30;51.40
67549;DHT22;54382;53.524;49.326;2022-09-09T13:52:19;18.40;51.30
67549;DHT22;54382;53.524;49.326;2022-09-09T13:54:49;18.40;51.40
67549;DHT22;54382;53.524;49.326;2022-09-09T13:57:20;18.40;51.40
67549;DHT22;54382;53.524;49.326;2022-09-09T13:59:50;18.40;51.50
67549;DHT22;54382;53.524;49.326;2022-09-09T14:02:18;18.40;51.10
67549;DHT22;54382;53.524;49.326;2022-09-09T14:04:45;18.40;51.20
67549;DHT22;54382;53.524;49.326;2022-09-09T14:07:17;18.30;51.40
67549;DHT22;54382;53.524;49.326;2022-09-09T14:09:44;18.30;51.60
67549;DHT22;54382;53.524;49.326;2022-09-09T14:12:16;18.30;51.40
67549;DHT22;54382;53.524;49.326;2022-09-09T14:14:45;18.40;51.20
67549;DHT22;54382;53.524;49.326;2022-09-09T14:17:12;18.30;51.00
67549;DHT22;54382;53.524;49.326;2022-09-09T14:19:40;18.40;51.00
67549;DHT22;54382;53.524;49.326;2022-09-09T14:22:06;18.40;50.80
67549;DHT22;54382;53.524;49.326;2022-09-09T14:24:34;18.40;50.90
67549;DHT22;54382;53.524;49.326;2022-09-09T14:27:01;18.40;50.90
67549;DHT22;54382;53.524;49.326;2022-09-09T14:29:27;18.40;51.00
67549;DHT22;54382;53.524;49.326;2022-09-09T14:31:54;18.40;50.50
67549;DHT22;54382;53.524;49.326;2022-09-09T14:34:21;18.40;50.20
67549;DHT22;54382;53.524;49.326;2022-09-09T14:36:47;18.50;50.10
67549;DHT22;54382;53.524;49.326;2022-09-09T14:39:14;18.40;49.70
67549;DHT22;54382;53.524;49.326;2022-09-09T14:41:41;18.50;50.10
67549;DHT22;54382;53.524;49.326;2022-09-09T14:44:07;18.40;49.80
67549;DHT22;54382;53.524;49.326;2022-09-09T14:46:34;18.40;50.00
67549;DHT22;54382;53.524;49.326;2022-09-09T14:49:01;18.40;50.20
67549;DHT22;54382;53.524;49.326;2022-09-09T14:51:27;18.30;49.90
67549;DHT22;54382;53.524;49.326;2022-09-09T14:53:56;18.30;50.20
67549;DHT22;54382;53.524;49.326;2022-09-09T14:56:29;18.30;50.30
67549;DHT22;54382;53.524;49.326;2022-09-09T14:58:58;18.20;50.30
67549;DHT22;54382;53.524;49.326;2022-09-09T15:01:29;18.20;50.40
67549;DHT22;54382;53.524;49.326;2022-09-09T15:03:59;18.10;50.50
67549;DHT22;54382;53.524;49.326;2022-09-09T15:06:28;18.10;50.60
67549;DHT22;54382;53.524;49.326;2022-09-09T15:08:56;18.10;50.50
67549;DHT22;54382;53.524;49.326;2022-09-09T15:11:25;18.10;50.30
67549;DHT22;54382;53.524;49.326;2022-09-09T15:13:54;18.20;50.40
67549;DHT22;54382;53.524;49.326;2022-09-09T15:16:24;18.10;50.10
67549;DHT22;54382;53.524;49.326;2022-09-09T15:18:54;18.10;50.40
67549;DHT22;54382;53.524;49.326;2022-09-09T15:21:25;18.00;50.40
67549;DHT22;54382;53.524;49.326;2022-09-09T15:23:59;18.00;50.50
67549;DHT22;54382;53.524;49.326;2022-09-09T15:26:26;17.90;50.50
67549;DHT22;54382;53.524;49.326;2022-09-09T15:28:54;17.90;50.60
67549;DHT22;54382;53.524;49.326;2022-09-09T15:31:22;17.90;50.70
67549;DHT22;54382;53.524;49.326;2022-09-09T15:33:55;17.80;50.90
67549;DHT22;54382;53.524;49.326;2022-09-09T15:39:02;17.80;51.10
67549;DHT22;54382;53.524;49.326;2022-09-09T15:41:30;17.80;51.10
67549;DHT22;54382;53.524;49.326;2022-09-09T15:43:58;17.80;51.20
67549;DHT22;54382;53.524;49.326;2022-09-09T15:46:37;17.70;51.20
67549;DHT22;54382;53.524;49.326;2022-09-09T15:49:14;17.70;51.30
67549;DHT22;54382;53.524;49.326;2022-09-09T15:51:57;17.70;51.60
67549;DHT22;54382;53.524;49.326;2022-09-09T15:54:33;17.70;51.80
67549;DHT22;54382;53.524;49.326;2022-09-09T15:57:03;17.60;51.80
67549;DHT22;54382;53.524;49.326;2022-09-09T15:59:31;17.60;51.90
67549;DHT22;54382;53.524;49.326;2022-09-09T16:01:58;17.60;52.00
67549;DHT22;54382;53.524;49.326;2022-09-09T16:04:26;17.60;52.60
67549;DHT22;54382;53.524;49.326;2022-09-09T16:07:12;17.50;52.90
67549;DHT22;54382;53.524;49.326;2022-09-09T16:09:39;17.50;52.40
67549;DHT22;54382;53.524;49.326;2022-09-09T16:12:06;17.50;52.20
67549;DHT22;54382;53.524;49.326;2022-09-09T16:14:33;17.50;52.20
67549;DHT22;54382;53.524;49.326;2022-09-09T16:17:03;17.40;52.20
67549;DHT22;54382;53.524;49.326;2022-09-09T16:19:31;17.40;52.30
67549;DHT22;54382;53.524;49.326;2022-09-09T16:21:58;17.40;52.30
67549;DHT22;54382;53.524;49.326;2022-09-09T16:24:25;17.40;52.20
67549;DHT22;54382;53.524;49.326;2022-09-09T16:26:53;17.40;52.30
67549;DHT22;54382;53.524;49.326;2022-09-09T16:29:21;17.30;52.10
67549;DHT22;54382;53.524;49.326;2022-09-09T16:31:49;17.30;52.30
67549;DHT22;54382;53.524;49.326;2022-09-09T16:34:17;17.30;52.30
67549;DHT22;54382;53.524;49.326;2022-09-09T16:36:44;17.20;52.30
67549;DHT22;54382;53.524;49.326;2022-09-09T16:39:13;17.20;52.40
67549;DHT22;54382;53.524;49.326;2022-09-09T16:41:42;17.20;52.50
67549;DHT22;54382;53.524;49.326;2022-09-09T16:44:11;17.20;52.50
67549;DHT22;54382;53.524;49.326;2022-09-09T16:46:41;17.10;52.50
67549;DHT22;54382;53.524;49.326;2022-09-09T16:49:10;17.10;52.70
67549;DHT22;54382;53.524;49.326;2022-09-09T16:51:42;17.10;52.90
67549;DHT22;54382;53.524;49.326;2022-09-09T16:54:10;17.00;52.90
67549;DHT22;54382;53.524;49.326;2022-09-09T16:56:39;17.00;53.00
67549;DHT22;54382;53.524;49.326;2022-09-09T16:59:12;17.00;53.20
67549;DHT22;54382;53.524;49.326;2022-09-09T17:01:47;17.00;53.20
67549;DHT22;54382;53.524;49.326;2022-09-09T17:04:19;17.10;53.30
67549;DHT22;54382;53.524;49.326;2022-09-09T17:06:53;17.10;53.70
67549;DHT22;54382;53.524;49.326;2022-09-09T17:09:21;17.00;53.90
67549;DHT22;54382;53.524;49.326;2022-09-09T17:11:49;17.00;54.10
67549;DHT22;54382;53.524;49.326;2022-09-09T17:14:19;17.00;54.20
67549;DHT22;54382;53.524;49.326;2022-09-09T17:16:46;17.00;54.20
67549;DHT22;54382;53.524;49.326;2022-09-09T17:19:14;17.00;54.20
67549;DHT22;54382;53.524;49.326;2022-09-09T17:21:41;17.00;54.40
67549;DHT22;54382;53.524;49.326;2022-09-09T17:24:07;16.90;54.30
67549;DHT22;54382;53.524;49.326;2022-09-09T17:26:34;16.90;54.40
67549;DHT22;54382;53.524;49.326;2022-09-09T17:29:02;16.90;54.00
67549;DHT22;54382;53.524;49.326;2022-09-09T17:31:29;16.90;53.80
67549;DHT22;54382;53.524;49.326;2022-09-09T17:33:58;16.80;54.10
67549;DHT22;54382;53.524;49.326;2022-09-09T17:36:30;16.80;54.20
67549;DHT22;54382;53.524;49.326;2022-09-09T17:38:59;16.70;54.20
67549;DHT22;54382;53.524;49.326;2022-09-09T17:41:30;16.70;54.10
67549;DHT22;54382;53.524;49.326;2022-09-09T17:43:58;16.70;54.10